Terminal Aerodrome Forecast
Issued by NWS Mt. Holly, NJ

Home | Current Version | Previous Version | Text Only | Print | Product List | Glossary On
Versions: 1 2 3 4 5 6 7 8 9 10 11 12 13 14 15 16 17 18 19 20
000
FTUS41 KPHI 251700
TAFRDG
TAF
KRDG 251739Z 2518/2618 27010G17KT P6SM BKN250
     FM252300 31004KT P6SM BKN150
     FM260600 33003KT P6SM OVC080
     FM261000 01005KT 3SM -RASN OVC010
     FM261200 01010KT 1SM -SN BR OVC008
      TEMPO 2613/2617 1/4SM +SN FG OVC003=

USA.gov is the U.S. government's official web portal to all federal, state and local government web resources and services.